createdAt,value
2018-06-29T00:00:42.318Z,55.13
2018-06-29T00:01:43.203Z,55.25
2018-06-29T00:02:43.102Z,60.59
2018-06-29T00:03:43.669Z,59.01
2018-06-29T00:04:45.440Z,59.52
2018-06-29T00:05:46.214Z,58.29
2018-06-29T00:06:47.008Z,55.06
2018-06-29T00:07:47.780Z,54.81
2018-06-29T00:08:48.554Z,56.38
2018-06-29T00:09:49.354Z,55.94
2018-06-29T00:10:50.120Z,60.54
2018-06-29T00:11:50.914Z,61.23
2018-06-29T00:12:51.683Z,61.93
2018-06-29T00:13:52.456Z,58.19
2018-06-29T00:14:53.232Z,55.89
2018-06-29T00:15:53.999Z,55.17
2018-06-29T00:16:54.801Z,54.91
2018-06-29T00:17:55.569Z,55.17
2018-06-29T00:18:56.342Z,55.19
2018-06-29T00:19:57.111Z,55.50
2018-06-29T00:20:57.884Z,54.85
2018-06-29T00:21:58.684Z,54.74
2018-06-29T00:22:59.452Z,55.36
2018-06-29T00:24:00.232Z,55.08
2018-06-29T00:25:01.035Z,54.96
2018-06-29T00:26:01.782Z,55.35
2018-06-29T00:27:02.583Z,54.87
2018-06-29T00:28:03.357Z,56.12
2018-06-29T00:29:04.129Z,55.15
2018-06-29T00:30:04.896Z,54.82
2018-06-29T00:31:05.681Z,56.05
2018-06-29T00:32:05.468Z,56.09
2018-06-29T00:33:07.240Z,55.62
2018-06-29T00:34:08.010Z,55.43
2018-06-29T00:35:08.781Z,55.87
2018-06-29T00:36:09.656Z,54.90
2018-06-29T00:37:35.762Z,55.06
2018-06-29T00:38:36.529Z,55.08
2018-06-29T00:39:37.306Z,55.13
2018-06-29T00:40:38.071Z,55.14
2018-06-29T00:41:38.841Z,55.26
2018-06-29T00:42:39.641Z,55.47
2018-06-29T00:43:40.407Z,57.98
2018-06-29T00:44:41.178Z,62.98
2018-06-29T00:45:41.954Z,60.91
2018-06-29T00:46:42.722Z,55.92
2018-06-29T00:47:43.519Z,55.65
2018-06-29T00:48:44.289Z,55.83
2018-06-29T00:49:45.063Z,55.04
2018-06-29T00:50:45.830Z,55.53
2018-06-29T00:51:46.605Z,55.61
2018-06-29T00:52:47.400Z,54.30
2018-06-29T00:53:48.169Z,52.52
2018-06-29T00:54:48.942Z,53.76
2018-06-29T00:55:49.716Z,53.37
2018-06-29T00:56:50.487Z,53.51
2018-06-29T00:57:51.280Z,53.23
2018-06-29T00:58:52.052Z,53.77
2018-06-29T00:59:52.825Z,53.80
2018-06-29T01:00:53.595Z,53.34
2018-06-29T01:01:54.364Z,53.81
2018-06-29T01:02:55.208Z,54.01
2018-06-29T01:03:54.931Z,53.77
2018-06-29T01:04:56.706Z,54.68
2018-06-29T01:05:57.475Z,54.24
2018-06-29T01:06:58.248Z,54.34
2018-06-29T01:07:59.045Z,53.82
2018-06-29T01:08:59.814Z,53.52
2018-06-29T01:10:00.585Z,53.78
2018-06-29T01:11:01.358Z,53.55
2018-06-29T01:12:02.127Z,53.77
2018-06-29T01:13:02.926Z,54.05
2018-06-29T01:14:03.699Z,54.02
2018-06-29T01:15:04.476Z,53.82
2018-06-29T01:16:05.244Z,54.17
2018-06-29T01:17:06.019Z,53.51
2018-06-29T01:18:06.816Z,53.78
2018-06-29T01:19:07.590Z,54.52
2018-06-29T01:20:08.360Z,53.07
2018-06-29T01:21:09.133Z,53.97
2018-06-29T01:22:09.906Z,52.15
2018-06-29T01:23:10.707Z,53.21
2018-06-29T01:24:11.475Z,58.44
2018-06-29T01:25:12.249Z,59.32
2018-06-29T01:26:13.021Z,57.08
2018-06-29T01:27:13.793Z,55.93
2018-06-29T01:28:14.586Z,54.08
2018-06-29T01:29:15.361Z,54.33
2018-06-29T01:30:16.133Z,54.81
2018-06-29T01:31:16.904Z,55.14
2018-06-29T01:32:17.681Z,54.72
2018-06-29T01:33:18.478Z,55.16
2018-06-29T01:34:19.250Z,55.18
2018-06-29T01:35:20.021Z,54.89
2018-06-29T01:36:20.792Z,55.08
2018-06-29T01:37:20.565Z,55.77
2018-06-29T01:38:22.364Z,55.74
2018-06-29T01:39:23.135Z,55.79
2018-06-29T01:40:23.904Z,56.26
2018-06-29T01:41:24.696Z,55.46
2018-06-29T01:42:24.451Z,55.63
2018-06-29T01:43:26.253Z,55.53
2018-06-29T01:44:33.022Z,54.85
2018-06-29T01:50:24.060Z,55.49
2018-06-29T01:51:40.872Z,55.54
2018-06-29T01:52:25.797Z,55.86
2018-06-29T01:53:24.336Z,55.14
2018-06-29T01:54:26.154Z,55.99
2018-06-29T01:55:25.919Z,55.36
2018-06-29T01:56:27.689Z,55.54
2018-06-29T01:57:28.475Z,55.65
2018-06-29T01:58:29.238Z,55.90
2018-06-29T01:59:30.010Z,55.72
2018-06-29T02:00:30.807Z,55.76
2018-06-29T02:01:31.587Z,55.72
2018-06-29T02:02:32.366Z,54.63
2018-06-29T02:03:33.142Z,54.95
2018-06-29T02:04:33.909Z,54.34
2018-06-29T02:05:35.385Z,53.81
2018-06-29T02:06:37.575Z,53.78
2018-06-29T02:07:43.771Z,54.53
2018-06-29T02:08:35.729Z,54.69
2018-06-29T02:09:37.534Z,54.37
2018-06-29T02:10:38.379Z,55.35
2018-06-29T02:11:41.576Z,54.63
2018-06-29T02:12:38.912Z,54.88
2018-06-29T02:13:43.132Z,54.76
2018-06-29T02:15:10.833Z,54.54
2018-06-29T02:16:12.668Z,54.53
2018-06-29T02:17:13.432Z,53.99
2018-06-29T02:18:14.188Z,53.70
2018-06-29T02:19:14.961Z,54.55
2018-06-29T02:20:15.736Z,53.63
2018-06-29T02:21:16.534Z,54.22
2018-06-29T02:22:17.302Z,54.68
2018-06-29T02:23:18.073Z,54.60
2018-06-29T02:24:18.848Z,54.39
2018-06-29T02:25:19.620Z,54.81
2018-06-29T02:26:20.427Z,56.11
2018-06-29T02:27:21.240Z,55.76
2018-06-29T02:28:20.964Z,57.53
2018-06-29T02:29:22.737Z,58.75
2018-06-29T02:30:25.014Z,58.56
2018-06-29T02:31:23.320Z,59.37
2018-06-29T02:32:25.089Z,54.71
2018-06-29T02:33:28.073Z,54.54
2018-06-29T02:34:27.828Z,54.39
2018-06-29T02:35:26.429Z,54.27
2018-06-29T02:36:28.233Z,53.79
2018-06-29T02:37:29.007Z,54.70
2018-06-29T02:38:29.786Z,54.13
2018-06-29T02:39:30.560Z,55.44
2018-06-29T02:40:31.340Z,57.88
2018-06-29T02:41:34.294Z,60.93
2018-06-29T02:42:31.903Z,60.56
2018-06-29T02:43:36.117Z,56.71
2018-06-29T02:44:33.464Z,57.93
2018-06-29T02:45:35.243Z,56.82
2018-06-29T02:46:36.761Z,54.80
2018-06-29T02:47:47.193Z,53.92
2018-06-29T02:48:36.457Z,52.58
2018-06-29T02:49:37.232Z,52.80
2018-06-29T02:50:39.011Z,52.47
2018-06-29T02:51:38.782Z,53.37
2018-06-29T02:52:40.590Z,54.13
2018-06-29T02:53:46.326Z,54.47
2018-06-29T02:54:42.155Z,56.44
2018-06-29T02:55:41.879Z,58.71
2018-06-29T02:56:45.964Z,60.09
2018-06-29T02:57:43.468Z,56.66
2018-06-29T02:58:48.251Z,56.33
2018-06-29T02:59:46.070Z,56.38
2018-06-29T03:00:45.797Z,54.91
2018-06-29T03:01:47.619Z,54.52
2018-06-29T03:02:48.377Z,54.55
2018-06-29T03:03:51.349Z,56.47
2018-06-29T03:04:48.938Z,56.28
2018-06-29T03:05:53.212Z,57.86
2018-06-29T03:06:50.511Z,59.90
2018-06-29T03:07:52.284Z,63.73
2018-06-29T03:08:53.057Z,64.39
2018-06-29T03:09:56.262Z,58.38
2018-06-29T03:10:53.692Z,57.22
2018-06-29T03:11:58.276Z,59.36
2018-06-29T03:12:54.663Z,59.83
2018-06-29T03:13:56.420Z,58.98
2018-06-29T03:14:57.187Z,58.78
2018-06-29T03:15:57.957Z,60.89
2018-06-29T03:16:58.756Z,61.33
2018-06-29T03:17:59.541Z,61.33
2018-06-29T03:19:05.481Z,61.74
2018-06-29T03:20:07.049Z,63.06
2018-06-29T03:21:00.625Z,64.12
2018-06-29T03:22:04.873Z,64.47
2018-06-29T03:23:02.244Z,64.09
2018-06-29T03:24:11.624Z,64.42
2018-06-29T03:25:03.803Z,64.52
2018-06-29T03:26:23.664Z,64.19
2018-06-29T03:27:09.660Z,63.87
2018-06-29T03:28:07.807Z,63.91
2018-06-29T03:29:21.233Z,63.70
2018-06-29T03:30:12.383Z,63.93
2018-06-29T03:31:09.954Z,63.43
2018-06-29T03:32:08.630Z,64.14
2018-06-29T03:33:12.807Z,62.97
2018-06-29T03:34:12.468Z,60.83
2018-06-29T03:35:11.006Z,61.49
2018-06-29T03:36:20.355Z,61.10
2018-06-29T03:37:17.776Z,62.46
2018-06-29T03:38:13.196Z,64.15
2018-06-29T03:39:17.391Z,64.78
2018-06-29T03:40:14.829Z,64.28
2018-06-29T03:41:15.590Z,64.75
2018-06-29T03:42:16.356Z,65.31
2018-06-29T03:43:21.201Z,66.66
2018-06-29T03:44:21.210Z,66.73
2018-06-29T03:45:18.790Z,66.95
2018-06-29T03:46:23.568Z,66.86
2018-06-29T03:47:21.404Z,66.97
2018-06-29T03:48:23.619Z,66.87
2018-06-29T03:49:22.011Z,64.87
2018-06-29T03:50:22.755Z,64.32
2018-06-29T03:51:26.689Z,66.41
2018-06-29T03:52:24.825Z,66.29
2018-06-29T03:53:28.136Z,65.91
2018-06-29T03:54:25.401Z,66.42
2018-06-29T03:55:34.772Z,67.07
2018-06-29T03:56:26.985Z,66.57
2018-06-29T03:57:27.751Z,64.84
2018-06-29T03:58:29.541Z,64.27
2018-06-29T03:59:30.317Z,65.04
2018-06-29T04:00:33.253Z,64.84
2018-06-29T04:01:30.967Z,63.38
2018-06-29T04:02:34.246Z,63.05
2018-06-29T04:03:32.533Z,64.35
2018-06-29T04:04:34.306Z,63.91
2018-06-29T04:05:35.120Z,60.68
2018-06-29T04:06:34.888Z,60.75
2018-06-29T04:07:35.659Z,59.14
2018-06-29T04:08:37.426Z,58.65
2018-06-29T04:09:38.240Z,59.19
2018-06-29T04:10:46.493Z,58.07
2018-06-29T04:11:38.813Z,57.69
2018-06-29T04:12:40.638Z,57.69
2018-06-29T04:13:41.480Z,57.60
2018-06-29T04:14:41.206Z,56.39
2018-06-29T04:15:45.720Z,55.92
2018-06-29T04:16:43.494Z,56.13
2018-06-29T04:17:44.298Z,56.71
2018-06-29T04:18:45.064Z,55.74
2018-06-29T04:19:45.838Z,56.02
2018-06-29T04:20:46.612Z,55.91
2018-06-29T04:21:47.391Z,55.19
2018-06-29T04:22:48.179Z,54.75
2018-06-29T04:23:48.950Z,54.49
2018-06-29T04:24:49.729Z,54.12
2018-06-29T04:26:08.060Z,53.79
2018-06-29T04:27:06.601Z,53.87
2018-06-29T04:27:59.412Z,54.25
2018-06-29T04:40:39.208Z,58.30
2018-06-29T04:43:11.030Z,56.96
2018-06-29T04:45:34.544Z,57.47
2018-06-29T04:46:26.404Z,57.56
2018-06-29T04:47:27.984Z,57.83
2018-06-29T04:48:46.434Z,58.17
2018-06-29T04:49:32.825Z,58.17
2018-06-29T04:50:31.661Z,58.15
2018-06-29T04:51:44.354Z,58.60
2018-06-29T04:53:03.249Z,58.44
2018-06-29T04:59:26.095Z,59.90
2018-06-29T05:00:04.808Z,59.97
2018-06-29T05:00:59.763Z,59.18
2018-06-29T05:04:51.337Z,59.18
2018-06-29T05:05:25.242Z,59.49
2018-06-29T05:05:38.311Z,59.19
2018-06-29T05:06:18.666Z,60.29
2018-06-29T05:08:41.727Z,61.02
2018-06-29T05:15:31.088Z,59.37
2018-06-29T05:21:28.932Z,60.06
2018-06-29T05:21:55.824Z,60.03
2018-06-29T05:22:45.710Z,60.07
2018-06-29T05:24:30.292Z,58.48
2018-06-29T05:25:52.058Z,59.10
2018-06-29T05:26:39.639Z,58.70
2018-06-29T05:27:26.887Z,58.64
2018-06-29T05:29:13.648Z,58.99
2018-06-29T05:30:38.553Z,56.83
2018-06-29T05:30:52.719Z,57.52
2018-06-29T05:31:34.566Z,56.74
2018-06-29T05:32:32.166Z,56.20
2018-06-29T05:33:46.008Z,55.13
2018-06-29T05:35:13.405Z,54.46
2018-06-29T05:36:14.050Z,53.09
2018-06-29T05:37:11.821Z,53.04
2018-06-29T05:38:12.612Z,52.32
2018-06-29T05:39:13.354Z,51.61
2018-06-29T05:40:15.161Z,51.42
2018-06-29T05:41:17.973Z,52.68
2018-06-29T05:42:19.509Z,54.47
2018-06-29T05:43:19.027Z,52.55
2018-06-29T05:44:17.831Z,51.70
2018-06-29T05:45:35.309Z,52.53
2018-06-29T05:46:24.162Z,52.21
2018-06-29T05:47:27.001Z,50.76
2018-06-29T05:48:28.417Z,50.24
2018-06-29T06:02:30.921Z,46.90
2018-06-29T06:03:37.416Z,46.77
2018-06-29T06:04:35.661Z,45.64
2018-06-29T06:05:32.902Z,46.39
2018-06-29T06:06:48.669Z,46.17
2018-06-29T06:07:28.809Z,47.08
2018-06-29T06:08:33.153Z,47.56
2018-06-29T06:09:30.366Z,47.96
2018-06-29T06:10:32.137Z,46.86
2018-06-29T06:11:32.910Z,45.00
2018-06-29T06:12:33.684Z,43.59
2018-06-29T06:13:34.526Z,45.15
2018-06-29T06:14:34.261Z,46.40
2018-06-29T06:15:36.082Z,43.54
2018-06-29T06:16:41.353Z,42.68
2018-06-29T06:17:44.005Z,41.91
2018-06-29T06:18:37.536Z,41.47
2018-06-29T06:19:38.263Z,40.82
2018-06-29T06:20:40.042Z,40.96
2018-06-29T06:21:40.820Z,42.91
2018-06-29T06:22:44.364Z,44.24
2018-06-29T06:23:42.158Z,43.38
2018-06-29T06:24:42.930Z,43.11
2018-06-29T06:25:43.728Z,42.87
2018-06-29T06:26:46.980Z,40.73
2018-06-29T06:27:44.289Z,41.53
2018-06-29T06:28:49.106Z,42.70
2018-06-29T06:29:46.856Z,42.85
2018-06-29T06:30:47.638Z,43.20
2018-06-29T06:31:48.433Z,42.30
2018-06-29T06:32:55.207Z,41.06
2018-06-29T06:33:50.061Z,40.43
2018-06-29T06:34:50.835Z,40.22
2018-06-29T06:36:12.616Z,38.24
2018-06-29T06:36:51.386Z,39.88
2018-06-29T06:37:53.160Z,39.64
2018-06-29T06:38:53.977Z,37.86
2018-06-29T06:39:57.212Z,38.19
2018-06-29T06:40:56.746Z,37.97
2018-06-29T06:42:02.541Z,37.70
2018-06-29T06:43:22.454Z,37.83
2018-06-29T06:43:56.735Z,39.21
2018-06-29T06:44:58.544Z,37.56
2018-06-29T06:46:14.698Z,37.60
2018-06-29T06:46:59.075Z,40.04
2018-06-29T06:48:02.239Z,39.70
2018-06-29T06:49:07.855Z,39.54
2018-06-29T06:50:01.449Z,39.43
2018-06-29T06:51:05.686Z,40.50
2018-06-29T06:52:11.152Z,40.44
2018-06-29T06:53:06.022Z,41.37
2018-06-29T06:54:11.949Z,39.58
2018-06-29T06:55:08.196Z,41.24
2018-06-29T06:56:09.190Z,41.04
2018-06-29T06:57:06.752Z,40.90
2018-06-29T06:58:08.572Z,39.24
2018-06-29T07:02:15.116Z,35.14
2018-06-29T07:03:15.886Z,35.21
2018-06-29T07:04:16.659Z,35.88
2018-06-29T07:05:17.448Z,35.49
2018-06-29T07:06:18.387Z,36.15
2018-06-29T07:07:18.085Z,37.25
2018-06-29T07:08:19.859Z,39.07
2018-06-29T07:09:20.637Z,38.25
2018-06-29T07:10:21.437Z,37.46
2018-06-29T07:11:22.205Z,38.54
2018-06-29T07:12:22.995Z,38.76
2018-06-29T07:13:22.755Z,36.73
2018-06-29T07:14:24.521Z,36.91
2018-06-29T07:15:25.315Z,38.58
2018-06-29T07:16:26.091Z,38.19
2018-06-29T07:17:26.859Z,37.96
2018-06-29T07:18:27.630Z,37.15
2018-06-29T07:19:28.577Z,36.04
2018-06-29T07:20:28.302Z,35.95
2018-06-29T07:21:36.126Z,35.42
2018-06-29T07:22:29.846Z,36.67
2018-06-29T07:23:31.617Z,36.26
2018-06-29T07:24:31.457Z,35.99
2018-06-29T07:25:32.186Z,36.92
2018-06-29T07:26:33.957Z,36.51
2018-06-29T07:27:34.732Z,35.48
2018-06-29T07:28:35.502Z,35.29
2018-06-29T07:29:36.276Z,36.28
2018-06-29T07:30:37.068Z,36.21
2018-06-29T07:31:37.845Z,36.21
2018-06-29T07:32:38.617Z,36.58
2018-06-29T07:33:39.386Z,34.38
2018-06-29T07:34:40.157Z,35.07
2018-06-29T07:35:40.953Z,35.59
2018-06-29T07:36:41.724Z,35.07
2018-06-29T07:37:42.496Z,34.71
2018-06-29T07:38:43.331Z,33.71
2018-06-29T07:39:43.043Z,34.31
2018-06-29T07:40:44.837Z,33.72
2018-06-29T07:41:45.610Z,33.24
2018-06-29T07:42:46.385Z,32.40
2018-06-29T07:43:47.158Z,32.72
2018-06-29T07:44:47.927Z,31.60
2018-06-29T07:45:48.722Z,30.92
2018-06-29T07:46:49.495Z,31.52
2018-06-29T07:47:50.279Z,30.86
2018-06-29T07:48:51.040Z,33.43
2018-06-29T07:49:51.814Z,34.20
2018-06-29T07:50:52.613Z,31.32
2018-06-29T07:51:53.383Z,30.95
2018-06-29T07:52:54.213Z,32.62
2018-06-29T07:53:53.931Z,31.83
2018-06-29T07:54:55.704Z,31.76
2018-06-29T07:55:56.499Z,32.96
2018-06-29T07:56:57.273Z,34.80
2018-06-29T07:57:58.044Z,33.09
2018-06-29T07:58:58.816Z,32.65
2018-06-29T07:59:59.592Z,32.40
2018-06-29T08:01:00.384Z,32.01
2018-06-29T08:02:01.161Z,33.06
2018-06-29T08:03:01.929Z,30.45
2018-06-29T08:04:02.710Z,31.71
2018-06-29T08:05:03.482Z,32.12
2018-06-29T08:06:04.272Z,32.12
2018-06-29T08:07:05.056Z,32.53
2018-06-29T08:08:05.827Z,32.37
2018-06-29T08:09:06.599Z,33.08
2018-06-29T08:10:07.368Z,32.38
2018-06-29T08:11:08.169Z,33.25
2018-06-29T08:12:08.949Z,33.06
2018-06-29T08:13:09.748Z,30.82
2018-06-29T08:14:10.485Z,33.04
2018-06-29T08:15:11.256Z,30.96
2018-06-29T08:16:12.057Z,29.38
2018-06-29T08:17:12.828Z,28.77
2018-06-29T08:18:13.606Z,28.56
2018-06-29T08:19:14.375Z,29.15
2018-06-29T08:20:15.208Z,30.83
2018-06-29T08:21:14.949Z,31.78
2018-06-29T08:22:15.719Z,30.61
2018-06-29T08:23:17.490Z,30.90
2018-06-29T08:24:18.278Z,31.00
2018-06-29T08:25:19.038Z,30.91
2018-06-29T08:26:19.837Z,29.40
2018-06-29T08:27:20.610Z,30.83
2018-06-29T08:28:21.383Z,30.89
2018-06-29T08:29:22.149Z,31.62
2018-06-29T08:30:22.923Z,32.23
2018-06-29T08:31:23.728Z,31.62
2018-06-29T08:32:24.502Z,31.92
2018-06-29T08:33:25.273Z,32.12
2018-06-29T08:34:26.055Z,31.85
2018-06-29T08:35:26.823Z,32.74
2018-06-29T08:36:27.617Z,32.47
2018-06-29T08:37:28.392Z,30.87
2018-06-29T08:38:29.161Z,30.36
2018-06-29T08:39:29.935Z,30.03
2018-06-29T08:40:30.705Z,28.82
2018-06-29T08:41:31.502Z,29.05
2018-06-29T08:42:32.271Z,29.20
2018-06-29T08:43:33.046Z,29.82
2018-06-29T08:44:33.825Z,29.21
2018-06-29T08:45:34.641Z,28.58
2018-06-29T08:46:34.388Z,29.33
2018-06-29T08:47:35.158Z,28.00
2018-06-29T08:48:36.927Z,29.77
2018-06-29T08:49:37.806Z,31.73
2018-06-29T08:50:37.471Z,30.04
2018-06-29T08:51:39.267Z,29.86
2018-06-29T08:52:40.041Z,29.57
2018-06-29T08:53:40.816Z,29.85
2018-06-29T08:54:41.587Z,28.11
2018-06-29T08:55:42.361Z,28.46
2018-06-29T08:56:43.155Z,27.69
2018-06-29T08:57:43.926Z,26.67
2018-06-29T08:58:44.759Z,27.62
2018-06-29T08:59:44.474Z,28.54
2018-06-29T09:00:46.252Z,27.36
2018-06-29T09:01:47.410Z,27.53
2018-06-29T09:12:47.164Z,23.37
2018-06-29T09:13:47.962Z,23.42
2018-06-29T09:14:48.731Z,23.78
2018-06-29T09:15:49.502Z,23.22
2018-06-29T09:16:50.274Z,23.37
2018-06-29T09:17:51.042Z,23.16
2018-06-29T09:18:51.837Z,23.44
2018-06-29T09:19:52.611Z,23.15
2018-06-29T09:20:53.385Z,23.23
2018-06-29T09:21:54.152Z,23.41
2018-06-29T09:22:54.923Z,22.32
2018-06-29T09:23:55.719Z,23.54
2018-06-29T09:24:56.490Z,24.14
2018-06-29T09:25:57.260Z,23.56
2018-06-29T09:26:58.033Z,22.88
2018-06-29T09:27:58.804Z,22.36
2018-06-29T09:28:59.602Z,21.45
2018-06-29T09:30:00.441Z,22.28
2018-06-29T09:31:00.143Z,23.03
2018-06-29T09:32:01.916Z,22.01
2018-06-29T09:33:02.685Z,21.87
2018-06-29T09:34:03.480Z,22.41
2018-06-29T09:35:04.255Z,21.67
2018-06-29T09:36:05.024Z,23.57
2018-06-29T09:37:05.793Z,22.42
2018-06-29T09:38:06.565Z,23.35
2018-06-29T09:39:07.363Z,22.85
2018-06-29T09:40:08.139Z,23.86
2018-06-29T09:41:08.907Z,23.82
2018-06-29T09:42:09.677Z,22.09
2018-06-29T09:43:10.453Z,21.73
2018-06-29T09:44:11.247Z,21.18
2018-06-29T09:45:12.021Z,20.23
2018-06-29T09:46:12.789Z,20.49
2018-06-29T09:47:13.566Z,20.74
2018-06-29T09:48:14.338Z,21.64
2018-06-29T09:49:15.132Z,20.64
2018-06-29T09:50:15.907Z,20.05
2018-06-29T09:51:16.678Z,20.18
2018-06-29T09:52:17.453Z,20.87
2018-06-29T09:53:18.224Z,20.68
2018-06-29T09:54:19.019Z,20.45
2018-06-29T09:55:19.794Z,19.20
2018-06-29T09:56:20.567Z,19.32
2018-06-29T09:57:21.336Z,19.92
2018-06-29T09:58:22.109Z,19.18
2018-06-29T09:59:22.907Z,18.62
2018-06-29T10:00:23.682Z,18.91
2018-06-29T10:01:24.463Z,19.17
2018-06-29T10:02:24.225Z,19.52
2018-06-29T10:03:25.997Z,18.61
2018-06-29T10:04:26.796Z,17.13
2018-06-29T10:05:27.572Z,17.89
2018-06-29T10:06:28.384Z,18.46
2018-06-29T10:07:28.125Z,18.34
2018-06-29T10:08:29.888Z,18.63
2018-06-29T10:09:30.683Z,18.49
2018-06-29T10:10:31.458Z,18.24
2018-06-29T10:11:32.231Z,18.41
2018-06-29T10:12:33.005Z,18.40
2018-06-29T10:13:33.778Z,18.62
2018-06-29T10:14:34.575Z,19.10
2018-06-29T10:15:35.345Z,18.92
2018-06-29T10:16:36.121Z,18.37
2018-06-29T10:17:36.890Z,18.69
2018-06-29T10:18:37.659Z,18.51
2018-06-29T10:19:38.609Z,18.59
2018-06-29T10:20:38.235Z,18.37
2018-06-29T10:21:40.004Z,19.38
2018-06-29T10:22:40.778Z,17.46
2018-06-29T10:23:41.549Z,17.03
2018-06-29T10:24:42.343Z,16.89
2018-06-29T10:25:43.121Z,16.91
2018-06-29T10:26:43.888Z,17.66
2018-06-29T10:27:44.663Z,17.50
2018-06-29T10:28:45.436Z,18.35
2018-06-29T10:29:46.241Z,18.02
2018-06-29T10:30:47.025Z,17.26
2018-06-29T10:31:46.781Z,16.43
2018-06-29T10:32:48.551Z,15.38
2018-06-29T10:33:49.324Z,15.43
2018-06-29T10:34:50.119Z,18.09
2018-06-29T10:35:50.898Z,17.81
2018-06-29T10:36:51.721Z,17.56
2018-06-29T10:37:51.439Z,17.75
2018-06-29T10:38:53.215Z,17.59
2018-06-29T10:39:54.006Z,17.42
2018-06-29T10:40:54.780Z,16.87
2018-06-29T10:41:55.551Z,16.95
2018-06-29T10:42:56.326Z,16.41
2018-06-29T10:43:57.094Z,16.24
2018-06-29T10:44:57.917Z,15.95
2018-06-29T10:45:58.664Z,15.37
2018-06-29T10:46:59.436Z,15.94
2018-06-29T10:48:00.207Z,16.71
2018-06-29T10:49:00.981Z,17.23
2018-06-29T10:50:01.778Z,17.56
2018-06-29T10:51:02.554Z,19.95
2018-06-29T10:52:03.323Z,19.76
2018-06-29T10:53:04.096Z,20.15
2018-06-29T10:54:04.870Z,17.35
2018-06-29T10:55:05.666Z,16.91
2018-06-29T10:56:06.436Z,15.47
2018-06-29T10:57:07.212Z,16.51
2018-06-29T10:58:07.988Z,16.69
2018-06-29T10:59:08.775Z,17.56
2018-06-29T11:00:09.589Z,16.60
2018-06-29T11:01:10.336Z,16.67
2018-06-29T11:02:11.117Z,17.23
2018-06-29T11:03:11.912Z,16.42
2018-06-29T11:04:15.572Z,16.13
2018-06-29T11:05:53.905Z,15.41
2018-06-29T11:06:49.959Z,15.46
2018-06-29T11:07:51.732Z,16.71
2018-06-29T11:09:33.178Z,16.73
2018-06-29T11:09:52.288Z,15.31
2018-06-29T11:10:54.117Z,14.94
2018-06-29T11:11:53.855Z,14.46
2018-06-29T11:12:55.626Z,15.27
2018-06-29T11:13:56.396Z,14.23
2018-06-29T11:14:57.167Z,14.96
2018-06-29T11:15:57.964Z,14.74
2018-06-29T11:16:58.734Z,14.11
2018-06-29T11:17:59.516Z,14.49
2018-06-29T11:19:00.279Z,14.68
2018-06-29T11:20:01.058Z,13.71
2018-06-29T11:21:01.852Z,14.19
2018-06-29T11:22:02.625Z,13.57
2018-06-29T11:23:03.393Z,14.03
2018-06-29T11:24:04.169Z,14.25
2018-06-29T11:25:04.948Z,14.58
2018-06-29T11:26:05.736Z,14.76
2018-06-29T11:27:06.507Z,14.38
2018-06-29T11:28:07.282Z,14.25
2018-06-29T11:29:08.054Z,13.96
2018-06-29T11:30:08.832Z,13.50
2018-06-29T11:31:08.628Z,12.75
2018-06-29T11:32:10.401Z,12.99
2018-06-29T11:33:11.175Z,13.16
2018-06-29T11:34:11.952Z,12.97
2018-06-29T11:35:12.727Z,12.20
2018-06-29T11:36:13.523Z,12.54
2018-06-29T11:37:14.291Z,12.99
2018-06-29T11:38:15.067Z,12.92
2018-06-29T11:39:15.857Z,12.75
2018-06-29T11:40:16.624Z,13.70
2018-06-29T11:41:17.459Z,13.36
2018-06-29T11:42:17.192Z,12.87
2018-06-29T11:43:18.991Z,12.91
2018-06-29T11:44:19.739Z,12.91
2018-06-29T11:45:20.521Z,13.22
2018-06-29T11:46:21.309Z,13.84
2018-06-29T11:47:21.082Z,13.66
2018-06-29T11:48:22.860Z,13.76
2018-06-29T11:49:23.627Z,13.42
2018-06-29T11:50:24.398Z,14.26
2018-06-29T11:51:25.198Z,14.56
2018-06-29T11:52:24.978Z,14.64
2018-06-29T11:53:26.743Z,14.36
2018-06-29T11:54:27.514Z,14.65
2018-06-29T11:55:31.305Z,14.53
2018-06-29T11:56:29.090Z,14.87
2018-06-29T11:57:32.904Z,14.67
2018-06-29T11:58:32.905Z,14.37
2018-06-29T11:59:30.452Z,13.26
2018-06-29T12:00:32.248Z,12.91
2018-06-29T12:01:33.039Z,13.30
2018-06-29T12:02:33.852Z,13.15
2018-06-29T12:03:34.620Z,13.12
2018-06-29T12:04:35.392Z,13.85
2018-06-29T12:05:36.167Z,13.07
2018-06-29T12:06:36.961Z,12.88
2018-06-29T12:07:37.732Z,12.84
2018-06-29T12:08:38.504Z,12.96
2018-06-29T12:09:39.276Z,12.94
2018-06-29T12:10:40.062Z,13.42
2018-06-29T12:11:40.853Z,13.43
2018-06-29T12:12:40.819Z,14.38
2018-06-29T12:13:41.513Z,14.24
2018-06-29T12:14:43.327Z,14.59
2018-06-29T12:15:43.056Z,13.53
2018-06-29T12:16:44.850Z,13.84
2018-06-29T12:17:45.629Z,14.08
2018-06-29T12:18:46.395Z,14.22
2018-06-29T12:19:47.172Z,12.86
2018-06-29T12:20:48.092Z,13.04
2018-06-29T12:21:47.797Z,13.81
2018-06-29T12:22:49.566Z,14.50
2018-06-29T12:23:50.614Z,14.39
2018-06-29T12:24:50.310Z,13.71
2018-06-29T12:25:52.082Z,14.59
2018-06-29T12:26:52.874Z,14.73
2018-06-29T12:27:53.664Z,14.17
2018-06-29T12:28:54.419Z,14.73
2018-06-29T12:29:55.192Z,15.07
2018-06-29T12:30:55.964Z,14.89
2018-06-29T12:31:56.757Z,16.49
2018-06-29T12:32:57.529Z,17.23
2018-06-29T12:33:58.305Z,18.45
2018-06-29T12:34:59.079Z,19.83
2018-06-29T12:35:59.854Z,20.07
2018-06-29T12:37:00.646Z,21.18
2018-06-29T12:38:01.478Z,21.52
2018-06-29T12:39:01.191Z,21.47
2018-06-29T12:40:02.964Z,21.68
2018-06-29T12:41:03.738Z,21.88
2018-06-29T12:42:04.535Z,22.82
2018-06-29T12:43:05.306Z,21.90
2018-06-29T12:44:06.079Z,21.99
2018-06-29T12:45:06.851Z,21.64
2018-06-29T12:46:07.630Z,22.36
2018-06-29T12:47:07.418Z,22.31
2018-06-29T12:48:09.191Z,23.78
2018-06-29T12:49:09.969Z,22.97
2018-06-29T12:50:10.736Z,22.47
2018-06-29T12:51:11.506Z,22.85
2018-06-29T12:52:12.303Z,23.34
2018-06-29T12:53:13.077Z,23.89
2018-06-29T12:54:13.849Z,23.70
2018-06-29T12:55:14.626Z,23.20
2018-06-29T12:56:15.395Z,23.20
2018-06-29T12:57:16.227Z,23.27
2018-06-29T12:58:16.192Z,23.02
2018-06-29T12:59:16.889Z,23.22
2018-06-29T13:00:18.659Z,23.43
2018-06-29T13:01:19.436Z,22.73
2018-06-29T13:02:20.227Z,24.15
2018-06-29T13:03:21.003Z,24.11
2018-06-29T13:04:21.773Z,24.79
2018-06-29T13:05:22.631Z,23.41
2018-06-29T13:06:22.321Z,23.38
2018-06-29T13:07:25.460Z,24.84
2018-06-29T13:08:24.855Z,24.29
2018-06-29T13:09:25.060Z,24.84
2018-06-29T13:10:24.253Z,24.52
2018-06-29T13:13:38.106Z,25.39
2018-06-29T13:14:38.877Z,25.16
2018-06-29T13:15:39.648Z,26.17
2018-06-29T13:16:40.419Z,25.98
2018-06-29T13:17:41.191Z,25.66
2018-06-29T13:18:41.984Z,25.11
2018-06-29T13:19:42.755Z,25.28
2018-06-29T13:20:43.526Z,24.94
2018-06-29T13:21:44.306Z,26.95
2018-06-29T13:22:44.069Z,26.72
2018-06-29T13:23:45.864Z,26.02
2018-06-29T13:24:46.672Z,26.88
2018-06-29T13:25:46.411Z,26.65
2018-06-29T13:26:48.178Z,25.54
2018-06-29T13:27:48.952Z,25.99
2018-06-29T13:28:49.742Z,25.24
2018-06-29T13:29:50.558Z,25.47
2018-06-29T13:30:51.398Z,25.08
2018-06-29T13:31:51.088Z,25.07
2018-06-29T13:32:52.859Z,25.36
2018-06-29T13:33:53.703Z,26.38
2018-06-29T13:34:53.437Z,26.06
2018-06-29T13:35:55.205Z,26.91
2018-06-29T13:36:55.981Z,26.70
2018-06-29T13:37:56.749Z,25.76
2018-06-29T13:38:57.546Z,26.05
2018-06-29T13:39:58.320Z,26.51
2018-06-29T13:40:59.091Z,26.95
2018-06-29T13:41:59.865Z,27.51
2018-06-29T13:43:00.640Z,26.28
2018-06-29T13:44:01.487Z,27.08
2018-06-29T13:45:01.209Z,27.02
2018-06-29T13:46:02.979Z,26.33
2018-06-29T13:47:03.748Z,27.06
2018-06-29T13:48:04.520Z,27.39
2018-06-29T13:49:05.323Z,25.87
2018-06-29T13:50:06.090Z,27.10
2018-06-29T13:51:06.864Z,27.89
2018-06-29T13:52:07.638Z,26.28
2018-06-29T13:53:08.412Z,26.59
2018-06-29T13:54:09.211Z,27.28
2018-06-29T13:55:09.979Z,26.56
2018-06-29T13:56:10.758Z,27.37
2018-06-29T13:57:11.525Z,27.03
2018-06-29T13:58:12.295Z,26.11
2018-06-29T13:59:13.094Z,26.09
2018-06-29T14:00:13.867Z,27.09
2018-06-29T14:01:14.640Z,27.20
2018-06-29T14:02:15.414Z,26.50
2018-06-29T14:03:16.186Z,27.12
2018-06-29T14:04:16.987Z,27.04
2018-06-29T14:05:17.758Z,26.52
2018-06-29T14:06:18.531Z,26.79
2018-06-29T14:07:19.304Z,26.95
2018-06-29T14:08:20.079Z,26.82
2018-06-29T14:09:20.875Z,26.98
2018-06-29T14:10:21.654Z,27.22
2018-06-29T14:11:22.423Z,26.88